Daikoku — JD3247 — position and weather

sailwx.info

Track history (hours):
 
Tides and Currents Weather Stations Pressure Air Temp Water Temp Dewpoint Dewpoint Depression Visibility Wind Speed Wind Dir Waves Ship Positions

Daikoku

Last reported at 2017-Jul-26 22:30 UTC. Time now 2017-Jul-26 22:42 UTC.
Position N 34°39' E 135°19'.

Length 95 m; draft 3 m.

Type: Cargo ship. MMSI: 431003009.

Date/timePositionNaut miles runAvg speedWind from/ knotsBaromVisibWave heightAir tempDewpointWater temp
2017-Jul-26 22:30N 34°39' E 135°19'0 0.0
2017-Jul-26 22:00N 34°39' E 135°19'0 0.0
2017-Jul-26 21:30N 34°39' E 135°19'0 0.0
2017-Jul-26 21:00N 34°39' E 135°19'0 0.0
2017-Jul-26 20:31N 34°39' E 135°19'0 0.0
2017-Jul-26 20:01N 34°39' E 135°19'0 0.0
2017-Jul-26 19:31N 34°39' E 135°19'0 0.0
2017-Jul-26 19:01N 34°39' E 135°19'0 0.0
2017-Jul-26 18:31N 34°39' E 135°19'0 0.0
2017-Jul-26 18:00N 34°39' E 135°19'0 0.0
2017-Jul-26 17:31N 34°39' E 135°19'0 0.0
2017-Jul-26 17:00N 34°39' E 135°19'0 0.0
2017-Jul-26 16:31N 34°39' E 135°19'0 0.0
2017-Jul-26 16:00N 34°39' E 135°19'0 0.0
2017-Jul-26 15:31N 34°39' E 135°19'0 0.0
2017-Jul-26 15:01N 34°39' E 135°19'0 0.0
2017-Jul-26 14:01N 34°39' E 135°19'0 0.0
2017-Jul-26 13:31N 34°39' E 135°19'0 0.0
2017-Jul-26 13:00N 34°39' E 135°19'0 0.0
2017-Jul-26 12:31N 34°39' E 135°19'0 0.0
2017-Jul-26 12:01N 34°39' E 135°19'1 1.1
2017-Jul-26 11:30N 34°39' E 135°18'3 6.6
2017-Jul-26 11:00N 34°40' E 135°15'0 0.2
2017-Jul-26 10:31N 34°40' E 135°14'0 0.0
2017-Jul-26 10:00N 34°40' E 135°14'0 0.1
2017-Jul-26 09:31N 34°40' E 135°14'2 4.0
2017-Jul-26 09:00N 34°38' E 135°16'1 1.5
2017-Jul-26 08:30N 34°38' E 135°17'3 5.5
2017-Jul-26 08:00N 34°36' E 135°15'4 8.4
2017-Jul-26 07:31N 34°35' E 135°10'814.6
2017-Jul-26 06:59N 34°37' E 135°01'1 0.0
2017-Jul-24 07:36N 34°37' E 135°01'110.0
2017-Jul-24 07:30N 34°37' E 135°02'510.9
2017-Jul-24 07:00N 34°36' E 135°09'611.7
2017-Jul-24 06:30N 34°37' E 135°16'3 6.9
2017-Jul-24 06:00N 34°41' E 135°17'0 0.0
2017-Jul-24 05:30N 34°41' E 135°17'0 0.0
2017-Jul-24 05:00N 34°41' E 135°17'0 0.0
2017-Jul-24 04:30N 34°41' E 135°17'0 0.0
2017-Jul-24 04:00N 34°41' E 135°17'0 0.0
2017-Jul-24 03:30N 34°41' E 135°17'0 0.0
2017-Jul-24 03:00N 34°41' E 135°17'1 2.9
2017-Jul-24 02:30N 34°40' E 135°18'1 2.7
2017-Jul-24 02:00N 34°39' E 135°19'2 3.1
2017-Jul-24 01:29N 34°39' E 135°17'2 4.6
2017-Jul-24 01:00N 34°39' E 135°15'1 2.8
2017-Jul-24 00:30N 34°39' E 135°16'2 3.5
2017-Jul-24 00:00N 34°37' E 135°15'0 0.0
2017-Jul-23 23:30N 34°37' E 135°15'0 0.0
2017-Jul-23 23:00N 34°37' E 135°15'0 0.0
2017-Jul-23 22:30N 34°37' E 135°15'0 0.0
2017-Jul-23 22:00N 34°37' E 135°15'0 0.0
2017-Jul-23 21:30N 34°37' E 135°15'0 0.0
2017-Jul-23 21:00N 34°37' E 135°15'0 0.0
2017-Jul-23 20:30N 34°37' E 135°15'0 0.0
2017-Jul-23 20:00N 34°37' E 135°15'0 0.0
2017-Jul-23 19:30N 34°37' E 135°15'0 0.0
2017-Jul-23 19:00N 34°37' E 135°15'0 0.0
2017-Jul-23 18:30N 34°37' E 135°15'0 0.0
2017-Jul-23 18:00N 34°37' E 135°15'0 0.0
2017-Jul-23 17:30N 34°37' E 135°15'0 0.0
2017-Jul-23 17:00N 34°37' E 135°15'0 0.0
2017-Jul-23 16:30N 34°37' E 135°15'0 0.0
2017-Jul-23 16:00N 34°37' E 135°15'0 0.0
2017-Jul-23 15:30N 34°37' E 135°15'0 0.0
2017-Jul-23 15:00N 34°37' E 135°15'0 0.0
2017-Jul-23 14:30N 34°37' E 135°15'0 0.0
2017-Jul-23 14:00N 34°37' E 135°15'0 0.0
2017-Jul-23 13:30N 34°37' E 135°15'0 0.0
2017-Jul-23 13:00N 34°37' E 135°15'0 0.1
2017-Jul-23 12:30N 34°37' E 135°15'0 0.1
2017-Jul-23 12:00N 34°37' E 135°15'3 6.5
2017-Jul-23 11:30N 34°35' E 135°12'612.8
2017-Jul-23 11:00N 34°35' E 135°04'4 8.2
2017-Jul-23 10:28N 34°37' E 134°59'5 9.9
2017-Jul-23 09:59N 34°35' E 134°54'  
2017-Jul-21 05:58N 34°37' E 135°01'511.1
2017-Jul-21 05:30N 34°36' E 135°08'611.4
2017-Jul-21 05:00N 34°37' E 135°14'2 4.8
2017-Jul-21 04:30N 34°39' E 135°15'0 0.0
2017-Jul-21 04:00N 34°39' E 135°15'0 0.0
2017-Jul-21 03:30N 34°39' E 135°15'0 0.0
2017-Jul-21 03:00N 34°39' E 135°15'0 0.0
2017-Jul-21 02:30N 34°39' E 135°15'0 0.0
2017-Jul-21 02:00N 34°39' E 135°15'0 0.0
2017-Jul-21 01:30N 34°39' E 135°15'0 0.2
2017-Jul-21 01:00N 34°39' E 135°15'2 3.2
2017-Jul-21 00:30N 34°38' E 135°17'2 4.8
2017-Jul-21 00:00N 34°40' E 135°18'1 2.5
2017-Jul-20 23:30N 34°41' E 135°17'2 4.6
2017-Jul-20 23:00N 34°39' E 135°19'1 1.6
2017-Jul-20 22:30N 34°38' E 135°19'0 0.0
2017-Jul-20 22:00N 34°38' E 135°19'0 0.0
2017-Jul-20 21:30N 34°38' E 135°19'0 0.0
2017-Jul-20 21:00N 34°38' E 135°19'0 0.0
2017-Jul-20 20:30N 34°38' E 135°19'0 0.0
2017-Jul-20 20:00N 34°38' E 135°19'0 0.0
2017-Jul-20 19:30N 34°38' E 135°19'0 0.0
2017-Jul-20 19:00N 34°38' E 135°19'0 0.1
2017-Jul-20 18:30N 34°38' E 135°19'0 0.0
2017-Jul-20 18:00N 34°38' E 135°19'0 0.0
2017-Jul-20 17:30N 34°38' E 135°19'0 0.0
2017-Jul-20 17:00N 34°38' E 135°19'0 0.0
2017-Jul-20 16:30N 34°38' E 135°19'2 3.6
2017-Jul-20 15:58N 34°37' E 135°17'613.0
2017-Jul-20 15:30N 34°35' E 135°11'612.7
2017-Jul-20 15:00N 34°36' E 135°03'2 0.1
2017-Jul-19 06:38N 34°37' E 135°02'214.9
2017-Jul-19 06:30N 34°36' E 135°04'612.2
2017-Jul-19 06:00N 34°37' E 135°11'4 8.6
2017-Jul-19 05:30N 34°39' E 135°15'1 0.8
2017-Jul-19 04:51N 34°39' E 135°15'1 2.3
2017-Jul-19 04:30N 34°39' E 135°16'3 5.1
2017-Jul-19 03:58N 34°39' E 135°19'0 0.0
2017-Jul-19 03:28N 34°39' E 135°19'1 2.0
2017-Jul-19 03:00N 34°40' E 135°19'2 3.5
2017-Jul-19 02:30N 34°41' E 135°17'2 5.0
2017-Jul-19 02:00N 34°41' E 135°14'1 1.8
2017-Jul-19 01:30N 34°41' E 135°13'0 0.0
2017-Jul-19 01:00N 34°41' E 135°13'0 0.0
2017-Jul-19 00:30N 34°41' E 135°13'0 0.0
2017-Jul-18 23:54N 34°41' E 135°13'0 0.0
2017-Jul-18 23:30N 34°41' E 135°13'0 0.0
2017-Jul-18 23:00N 34°41' E 135°13'0 0.0
2017-Jul-18 22:30N 34°41' E 135°13'0 0.0
2017-Jul-18 22:00N 34°41' E 135°13'0 0.0
2017-Jul-18 21:30N 34°41' E 135°13'0 0.0
2017-Jul-18 21:00N 34°41' E 135°13'0 0.0
2017-Jul-18 20:30N 34°41' E 135°13'0 0.0
2017-Jul-18 19:54N 34°41' E 135°13'0 0.0
2017-Jul-18 19:30N 34°41' E 135°13'0 0.0
2017-Jul-18 18:48N 34°41' E 135°13'0 0.0
2017-Jul-18 18:30N 34°41' E 135°13'0 0.0
2017-Jul-18 18:00N 34°41' E 135°13'0 0.0
2017-Jul-18 17:30N 34°41' E 135°13'0 0.0
2017-Jul-18 17:00N 34°41' E 135°13'0 0.0
2017-Jul-18 16:30N 34°41' E 135°13'0 0.0
2017-Jul-18 16:00N 34°41' E 135°13'0 0.0
2017-Jul-18 15:30N 34°41' E 135°13'0 0.0
2017-Jul-18 14:54N 34°41' E 135°13'0 0.0
2017-Jul-18 14:00N 34°41' E 135°13'0 0.0
2017-Jul-18 13:18N 34°41' E 135°13'0 0.0
2017-Jul-18 13:00N 34°41' E 135°13'0 0.0
2017-Jul-18 12:24N 34°41' E 135°13'0 0.0
2017-Jul-18 12:00N 34°41' E 135°13'0 0.0
2017-Jul-18 11:30N 34°41' E 135°13'0 0.0
2017-Jul-18 11:00N 34°41' E 135°13'0 0.0
2017-Jul-18 10:30N 34°41' E 135°13'0 0.0
2017-Jul-18 10:00N 34°41' E 135°13'0 0.0
2017-Jul-18 09:24N 34°41' E 135°13'0 0.0
2017-Jul-18 08:48N 34°41' E 135°13'0 0.0
2017-Jul-18 08:30N 34°41' E 135°13'0 0.0
2017-Jul-18 08:00N 34°41' E 135°13'0 0.0
2017-Jul-18 07:30N 34°41' E 135°13'0 0.0
2017-Jul-18 07:00N 34°41' E 135°13'0 0.0
2017-Jul-18 06:18N 34°41' E 135°13'0 0.0
2017-Jul-18 06:00N 34°41' E 135°13'0 0.0
2017-Jul-18 05:30N 34°41' E 135°13'0 0.0
2017-Jul-18 05:00N 34°41' E 135°13'0 0.0
2017-Jul-18 04:30N 34°41' E 135°13'0 0.0
2017-Jul-18 03:54N 34°41' E 135°13'0 0.0
2017-Jul-18 03:30N 34°41' E 135°13'0 0.0
2017-Jul-18 03:00N 34°41' E 135°13'0 0.0
2017-Jul-18 02:30N 34°41' E 135°13'0 0.0
2017-Jul-18 02:00N 34°41' E 135°13'0 0.0
2017-Jul-18 01:30N 34°41' E 135°13'0 0.0
2017-Jul-18 00:54N 34°41' E 135°13'0 0.0
2017-Jul-18 00:30N 34°41' E 135°13'0 0.0
2017-Jul-18 00:00N 34°41' E 135°13'0 0.0
2017-Jul-17 23:30N 34°41' E 135°13'0 0.0
2017-Jul-17 23:00N 34°41' E 135°13'0 0.0
2017-Jul-17 22:24N 34°41' E 135°13'0 0.0
2017-Jul-17 22:00N 34°41' E 135°13'0 0.0
2017-Jul-17 21:30N 34°41' E 135°13'0 0.0
2017-Jul-17 21:00N 34°41' E 135°13'0 0.0
2017-Jul-17 20:24N 34°41' E 135°13'0 0.0
2017-Jul-17 20:00N 34°41' E 135°13'0 0.0
2017-Jul-17 19:30N 34°41' E 135°13'0 0.0
2017-Jul-17 19:00N 34°41' E 135°13'0 0.0
2017-Jul-17 18:00N 34°41' E 135°13'0 0.0
2017-Jul-17 17:30N 34°41' E 135°13'0 0.0
2017-Jul-17 17:00N 34°41' E 135°13'0 0.0
2017-Jul-17 16:24N 34°41' E 135°13'0 0.0
2017-Jul-17 15:54N 34°41' E 135°13'0 0.0
2017-Jul-17 15:30N 34°41' E 135°13'0 0.0
2017-Jul-17 15:00N 34°41' E 135°13'0 0.0
2017-Jul-17 14:30N 34°41' E 135°13'0 0.0
2017-Jul-17 14:00N 34°41' E 135°13'0 0.0
2017-Jul-17 13:24N 34°41' E 135°13'0 0.0
2017-Jul-17 12:54N 34°41' E 135°13'0 0.0
2017-Jul-17 12:30N 34°41' E 135°13'0 0.0
2017-Jul-17 12:00N 34°41' E 135°13'0 0.0
2017-Jul-17 11:30N 34°41' E 135°13'0 0.0
2017-Jul-17 10:54N 34°41' E 135°13'0 0.0
2017-Jul-17 10:24N 34°41' E 135°13'0 0.0
2017-Jul-17 10:00N 34°41' E 135°13'0 0.0
2017-Jul-17 09:30N 34°41' E 135°13'0 0.0
2017-Jul-17 08:54N 34°41' E 135°13'0 0.0
2017-Jul-17 08:30N 34°41' E 135°13'0 0.0
2017-Jul-17 08:00N 34°41' E 135°13'0 0.0
2017-Jul-17 07:30N 34°41' E 135°13'0 0.0
2017-Jul-17 07:00N 34°41' E 135°13'0 0.0
2017-Jul-17 06:30N 34°41' E 135°13'0 0.0
2017-Jul-17 06:00N 34°41' E 135°13'0 0.0
2017-Jul-17 05:24N 34°41' E 135°13'0 0.0
2017-Jul-17 05:00N 34°41' E 135°13'0 0.0
2017-Jul-17 04:30N 34°41' E 135°13'0 0.0
2017-Jul-17 03:54N 34°41' E 135°13'0 0.0
2017-Jul-17 03:30N 34°41' E 135°13'0 0.0
2017-Jul-17 02:54N 34°41' E 135°13'0 0.0
2017-Jul-17 02:24N 34°41' E 135°13'0 0.0
2017-Jul-17 02:00N 34°41' E 135°13'0 0.0
2017-Jul-17 01:30N 34°41' E 135°13'0 0.0
2017-Jul-17 01:00N 34°41' E 135°13'0 0.0
2017-Jul-17 00:26N 34°41' E 135°13'1 1.7
2017-Jul-17 00:00N 34°41' E 135°14'5 9.4
2017-Jul-16 23:30N 34°36' E 135°15'611.9
2017-Jul-16 23:00N 34°35' E 135°08'  
Track history (hours):
 
Tides and Currents Weather Stations Pressure Air Temp Water Temp Dewpoint Dewpoint Depression Visibility Wind Speed Wind Dir Waves Ship Positions

Daikoku

Last reported at 2017-Jul-26 22:30 UTC. Time now 2017-Jul-26 22:42 UTC.
Position N 34°39' E 135°19'.

Length 95 m; draft 3 m.

Type: Cargo ship. MMSI: 431003009.

Date/timePositionNaut miles runAvg speedWind from/ knotsBaromVisibWave heightAir tempDewpointWater temp
2017-Jul-26 22:30N 34°39' E 135°19'0 0.0
2017-Jul-26 22:00N 34°39' E 135°19'0 0.0
2017-Jul-26 21:30N 34°39' E 135°19'0 0.0
2017-Jul-26 21:00N 34°39' E 135°19'0 0.0
2017-Jul-26 20:31N 34°39' E 135°19'0 0.0
2017-Jul-26 20:01N 34°39' E 135°19'0 0.0
2017-Jul-26 19:31N 34°39' E 135°19'0 0.0
2017-Jul-26 19:01N 34°39' E 135°19'0 0.0
2017-Jul-26 18:31N 34°39' E 135°19'0 0.0
2017-Jul-26 18:00N 34°39' E 135°19'0 0.0
2017-Jul-26 17:31N 34°39' E 135°19'0 0.0
2017-Jul-26 17:00N 34°39' E 135°19'0 0.0
2017-Jul-26 16:31N 34°39' E 135°19'0 0.0
2017-Jul-26 16:00N 34°39' E 135°19'0 0.0
2017-Jul-26 15:31N 34°39' E 135°19'0 0.0
2017-Jul-26 15:01N 34°39' E 135°19'0 0.0
2017-Jul-26 14:01N 34°39' E 135°19'0 0.0
2017-Jul-26 13:31N 34°39' E 135°19'0 0.0
2017-Jul-26 13:00N 34°39' E 135°19'0 0.0
2017-Jul-26 12:31N 34°39' E 135°19'0 0.0
2017-Jul-26 12:01N 34°39' E 135°19'1 1.1
2017-Jul-26 11:30N 34°39' E 135°18'3 6.6
2017-Jul-26 11:00N 34°40' E 135°15'0 0.2
2017-Jul-26 10:31N 34°40' E 135°14'0 0.0
2017-Jul-26 10:00N 34°40' E 135°14'0 0.1
2017-Jul-26 09:31N 34°40' E 135°14'2 4.0
2017-Jul-26 09:00N 34°38' E 135°16'1 1.5
2017-Jul-26 08:30N 34°38' E 135°17'3 5.5
2017-Jul-26 08:00N 34°36' E 135°15'4 8.4
2017-Jul-26 07:31N 34°35' E 135°10'814.6
2017-Jul-26 06:59N 34°37' E 135°01'1 0.0
2017-Jul-24 07:36N 34°37' E 135°01'110.0
2017-Jul-24 07:30N 34°37' E 135°02'510.9
2017-Jul-24 07:00N 34°36' E 135°09'611.7
2017-Jul-24 06:30N 34°37' E 135°16'3 6.9
2017-Jul-24 06:00N 34°41' E 135°17'0 0.0
2017-Jul-24 05:30N 34°41' E 135°17'0 0.0
2017-Jul-24 05:00N 34°41' E 135°17'0 0.0
2017-Jul-24 04:30N 34°41' E 135°17'0 0.0
2017-Jul-24 04:00N 34°41' E 135°17'0 0.0
2017-Jul-24 03:30N 34°41' E 135°17'0 0.0
2017-Jul-24 03:00N 34°41' E 135°17'1 2.9
2017-Jul-24 02:30N 34°40' E 135°18'1 2.7
2017-Jul-24 02:00N 34°39' E 135°19'2 3.1
2017-Jul-24 01:29N 34°39' E 135°17'2 4.6
2017-Jul-24 01:00N 34°39' E 135°15'1 2.8
2017-Jul-24 00:30N 34°39' E 135°16'2 3.5
2017-Jul-24 00:00N 34°37' E 135°15'0 0.0
2017-Jul-23 23:30N 34°37' E 135°15'0 0.0
2017-Jul-23 23:00N 34°37' E 135°15'0 0.0
2017-Jul-23 22:30N 34°37' E 135°15'0 0.0
2017-Jul-23 22:00N 34°37' E 135°15'0 0.0
2017-Jul-23 21:30N 34°37' E 135°15'0 0.0
2017-Jul-23 21:00N 34°37' E 135°15'0 0.0
2017-Jul-23 20:30N 34°37' E 135°15'0 0.0
2017-Jul-23 20:00N 34°37' E 135°15'0 0.0
2017-Jul-23 19:30N 34°37' E 135°15'0 0.0
2017-Jul-23 19:00N 34°37' E 135°15'0 0.0
2017-Jul-23 18:30N 34°37' E 135°15'0 0.0
2017-Jul-23 18:00N 34°37' E 135°15'0 0.0
2017-Jul-23 17:30N 34°37' E 135°15'0 0.0
2017-Jul-23 17:00N 34°37' E 135°15'0 0.0
2017-Jul-23 16:30N 34°37' E 135°15'0 0.0
2017-Jul-23 16:00N 34°37' E 135°15'0 0.0
2017-Jul-23 15:30N 34°37' E 135°15'0 0.0
2017-Jul-23 15:00N 34°37' E 135°15'0 0.0
2017-Jul-23 14:30N 34°37' E 135°15'0 0.0
2017-Jul-23 14:00N 34°37' E 135°15'0 0.0
2017-Jul-23 13:30N 34°37' E 135°15'0 0.0
2017-Jul-23 13:00N 34°37' E 135°15'0 0.1
2017-Jul-23 12:30N 34°37' E 135°15'0 0.1
2017-Jul-23 12:00N 34°37' E 135°15'3 6.5
2017-Jul-23 11:30N 34°35' E 135°12'612.8
2017-Jul-23 11:00N 34°35' E 135°04'4 8.2
2017-Jul-23 10:28N 34°37' E 134°59'5 9.9
2017-Jul-23 09:59N 34°35' E 134°54'  
2017-Jul-21 05:58N 34°37' E 135°01'511.1
2017-Jul-21 05:30N 34°36' E 135°08'611.4
2017-Jul-21 05:00N 34°37' E 135°14'2 4.8
2017-Jul-21 04:30N 34°39' E 135°15'0 0.0
2017-Jul-21 04:00N 34°39' E 135°15'0 0.0
2017-Jul-21 03:30N 34°39' E 135°15'0 0.0
2017-Jul-21 03:00N 34°39' E 135°15'0 0.0
2017-Jul-21 02:30N 34°39' E 135°15'0 0.0
2017-Jul-21 02:00N 34°39' E 135°15'0 0.0
2017-Jul-21 01:30N 34°39' E 135°15'0 0.2
2017-Jul-21 01:00N 34°39' E 135°15'2 3.2
2017-Jul-21 00:30N 34°38' E 135°17'2 4.8
2017-Jul-21 00:00N 34°40' E 135°18'1 2.5
2017-Jul-20 23:30N 34°41' E 135°17'2 4.6
2017-Jul-20 23:00N 34°39' E 135°19'1 1.6
2017-Jul-20 22:30N 34°38' E 135°19'0 0.0
2017-Jul-20 22:00N 34°38' E 135°19'0 0.0
2017-Jul-20 21:30N 34°38' E 135°19'0 0.0
2017-Jul-20 21:00N 34°38' E 135°19'0 0.0
2017-Jul-20 20:30N 34°38' E 135°19'0 0.0
2017-Jul-20 20:00N 34°38' E 135°19'0 0.0
2017-Jul-20 19:30N 34°38' E 135°19'0 0.0
2017-Jul-20 19:00N 34°38' E 135°19'0 0.1
2017-Jul-20 18:30N 34°38' E 135°19'0 0.0
2017-Jul-20 18:00N 34°38' E 135°19'0 0.0
2017-Jul-20 17:30N 34°38' E 135°19'0 0.0
2017-Jul-20 17:00N 34°38' E 135°19'0 0.0
2017-Jul-20 16:30N 34°38' E 135°19'2 3.6
2017-Jul-20 15:58N 34°37' E 135°17'613.0
2017-Jul-20 15:30N 34°35' E 135°11'612.7
2017-Jul-20 15:00N 34°36' E 135°03'2 0.1
2017-Jul-19 06:38N 34°37' E 135°02'214.9
2017-Jul-19 06:30N 34°36' E 135°04'612.2
2017-Jul-19 06:00N 34°37' E 135°11'4 8.6
2017-Jul-19 05:30N 34°39' E 135°15'1 0.8
2017-Jul-19 04:51N 34°39' E 135°15'1 2.3
2017-Jul-19 04:30N 34°39' E 135°16'3 5.1
2017-Jul-19 03:58N 34°39' E 135°19'0 0.0
2017-Jul-19 03:28N 34°39' E 135°19'1 2.0
2017-Jul-19 03:00N 34°40' E 135°19'2 3.5
2017-Jul-19 02:30N 34°41' E 135°17'2 5.0
2017-Jul-19 02:00N 34°41' E 135°14'1 1.8
2017-Jul-19 01:30N 34°41' E 135°13'0 0.0
2017-Jul-19 01:00N 34°41' E 135°13'0 0.0
2017-Jul-19 00:30N 34°41' E 135°13'0 0.0
2017-Jul-18 23:54N 34°41' E 135°13'0 0.0
2017-Jul-18 23:30N 34°41' E 135°13'0 0.0
2017-Jul-18 23:00N 34°41' E 135°13'0 0.0
2017-Jul-18 22:30N 34°41' E 135°13'0 0.0
2017-Jul-18 22:00N 34°41' E 135°13'0 0.0
2017-Jul-18 21:30N 34°41' E 135°13'0 0.0
2017-Jul-18 21:00N 34°41' E 135°13'0 0.0
2017-Jul-18 20:30N 34°41' E 135°13'0 0.0
2017-Jul-18 19:54N 34°41' E 135°13'0 0.0
2017-Jul-18 19:30N 34°41' E 135°13'0 0.0
2017-Jul-18 18:48N 34°41' E 135°13'0 0.0
2017-Jul-18 18:30N 34°41' E 135°13'0 0.0
2017-Jul-18 18:00N 34°41' E 135°13'0 0.0
2017-Jul-18 17:30N 34°41' E 135°13'0 0.0
2017-Jul-18 17:00N 34°41' E 135°13'0 0.0
2017-Jul-18 16:30N 34°41' E 135°13'0 0.0
2017-Jul-18 16:00N 34°41' E 135°13'0 0.0
2017-Jul-18 15:30N 34°41' E 135°13'0 0.0
2017-Jul-18 14:54N 34°41' E 135°13'0 0.0
2017-Jul-18 14:00N 34°41' E 135°13'0 0.0
2017-Jul-18 13:18N 34°41' E 135°13'0 0.0
2017-Jul-18 13:00N 34°41' E 135°13'0 0.0
2017-Jul-18 12:24N 34°41' E 135°13'0 0.0
2017-Jul-18 12:00N 34°41' E 135°13'0 0.0
2017-Jul-18 11:30N 34°41' E 135°13'0 0.0
2017-Jul-18 11:00N 34°41' E 135°13'0 0.0
2017-Jul-18 10:30N 34°41' E 135°13'0 0.0
2017-Jul-18 10:00N 34°41' E 135°13'0 0.0
2017-Jul-18 09:24N 34°41' E 135°13'0 0.0
2017-Jul-18 08:48N 34°41' E 135°13'0 0.0
2017-Jul-18 08:30N 34°41' E 135°13'0 0.0
2017-Jul-18 08:00N 34°41' E 135°13'0 0.0
2017-Jul-18 07:30N 34°41' E 135°13'0 0.0
2017-Jul-18 07:00N 34°41' E 135°13'0 0.0
2017-Jul-18 06:18N 34°41' E 135°13'0 0.0
2017-Jul-18 06:00N 34°41' E 135°13'0 0.0
2017-Jul-18 05:30N 34°41' E 135°13'0 0.0
2017-Jul-18 05:00N 34°41' E 135°13'0 0.0
2017-Jul-18 04:30N 34°41' E 135°13'0 0.0
2017-Jul-18 03:54N 34°41' E 135°13'0 0.0
2017-Jul-18 03:30N 34°41' E 135°13'0 0.0
2017-Jul-18 03:00N 34°41' E 135°13'0 0.0
2017-Jul-18 02:30N 34°41' E 135°13'0 0.0
2017-Jul-18 02:00N 34°41' E 135°13'0 0.0
2017-Jul-18 01:30N 34°41' E 135°13'0 0.0
2017-Jul-18 00:54N 34°41' E 135°13'0 0.0
2017-Jul-18 00:30N 34°41' E 135°13'0 0.0
2017-Jul-18 00:00N 34°41' E 135°13'0 0.0
2017-Jul-17 23:30N 34°41' E 135°13'0 0.0
2017-Jul-17 23:00N 34°41' E 135°13'0 0.0
2017-Jul-17 22:24N 34°41' E 135°13'0 0.0
2017-Jul-17 22:00N 34°41' E 135°13'0 0.0
2017-Jul-17 21:30N 34°41' E 135°13'0 0.0
2017-Jul-17 21:00N 34°41' E 135°13'0 0.0
2017-Jul-17 20:24N 34°41' E 135°13'0 0.0
2017-Jul-17 20:00N 34°41' E 135°13'0 0.0
2017-Jul-17 19:30N 34°41' E 135°13'0 0.0
2017-Jul-17 19:00N 34°41' E 135°13'0 0.0
2017-Jul-17 18:00N 34°41' E 135°13'0 0.0
2017-Jul-17 17:30N 34°41' E 135°13'0 0.0
2017-Jul-17 17:00N 34°41' E 135°13'0 0.0
2017-Jul-17 16:24N 34°41' E 135°13'0 0.0
2017-Jul-17 15:54N 34°41' E 135°13'0 0.0
2017-Jul-17 15:30N 34°41' E 135°13'0 0.0
2017-Jul-17 15:00N 34°41' E 135°13'0 0.0
2017-Jul-17 14:30N 34°41' E 135°13'0 0.0
2017-Jul-17 14:00N 34°41' E 135°13'0 0.0
2017-Jul-17 13:24N 34°41' E 135°13'0 0.0
2017-Jul-17 12:54N 34°41' E 135°13'0 0.0
2017-Jul-17 12:30N 34°41' E 135°13'0 0.0
2017-Jul-17 12:00N 34°41' E 135°13'0 0.0
2017-Jul-17 11:30N 34°41' E 135°13'0 0.0
2017-Jul-17 10:54N 34°41' E 135°13'0 0.0
2017-Jul-17 10:24N 34°41' E 135°13'0 0.0
2017-Jul-17 10:00N 34°41' E 135°13'0 0.0
2017-Jul-17 09:30N 34°41' E 135°13'0 0.0
2017-Jul-17 08:54N 34°41' E 135°13'0 0.0
2017-Jul-17 08:30N 34°41' E 135°13'0 0.0
2017-Jul-17 08:00N 34°41' E 135°13'0 0.0
2017-Jul-17 07:30N 34°41' E 135°13'0 0.0
2017-Jul-17 07:00N 34°41' E 135°13'0 0.0
2017-Jul-17 06:30N 34°41' E 135°13'0 0.0
2017-Jul-17 06:00N 34°41' E 135°13'0 0.0
2017-Jul-17 05:24N 34°41' E 135°13'0 0.0
2017-Jul-17 05:00N 34°41' E 135°13'0 0.0
2017-Jul-17 04:30N 34°41' E 135°13'0 0.0
2017-Jul-17 03:54N 34°41' E 135°13'0 0.0
2017-Jul-17 03:30N 34°41' E 135°13'0 0.0
2017-Jul-17 02:54N 34°41' E 135°13'0 0.0
2017-Jul-17 02:24N 34°41' E 135°13'0 0.0
2017-Jul-17 02:00N 34°41' E 135°13'0 0.0
2017-Jul-17 01:30N 34°41' E 135°13'0 0.0
2017-Jul-17 01:00N 34°41' E 135°13'0 0.0
2017-Jul-17 00:26N 34°41' E 135°13'1 1.7
2017-Jul-17 00:00N 34°41' E 135°14'5 9.4
2017-Jul-16 23:30N 34°36' E 135°15'611.9
2017-Jul-16 23:00N 34°35' E 135°08'  

Dump ship's entire track history